createdAt,value
2018-06-29T00:00:09.866Z,27.5
2018-06-29T00:02:09.989Z,27.5
2018-06-29T00:04:05.112Z,27.5
2018-06-29T00:06:04.989Z,27.5
2018-06-29T00:08:05.322Z,27.5
2018-06-29T00:10:07.317Z,27.5
2018-06-29T00:12:05.576Z,27.5
2018-06-29T00:14:10.520Z,27.5
2018-06-29T00:16:05.410Z,27.5
2018-06-29T00:18:05.568Z,27.6
2018-06-29T00:20:05.221Z,27.5
2018-06-29T00:22:07.393Z,27.5
2018-06-29T00:24:12.628Z,27.5
2018-06-29T00:26:12.821Z,27.5
2018-06-29T00:28:04.679Z,27.5
2018-06-29T00:30:07.929Z,27.5
2018-06-29T00:32:05.077Z,27.5
2018-06-29T00:34:09.819Z,27.5
2018-06-29T00:36:07.270Z,27.5
2018-06-29T00:38:04.928Z,27.5
2018-06-29T00:40:04.657Z,27.5
2018-06-29T00:42:05.334Z,27.5
2018-06-29T00:44:05.377Z,27.5
2018-06-29T00:46:07.607Z,27.5
2018-06-29T00:48:05.361Z,27.4
2018-06-29T00:50:05.141Z,27.5
2018-06-29T00:52:04.886Z,27.5
2018-06-29T00:54:05.895Z,27.5
2018-06-29T00:56:04.739Z,27.5
2018-06-29T00:58:04.959Z,27.5
2018-06-29T01:00:07.240Z,27.5
2018-06-29T01:02:12.752Z,27.5
2018-06-29T01:04:04.981Z,27.5
2018-06-29T01:06:07.288Z,27.5
2018-06-29T01:08:04.955Z,27.5
2018-06-29T01:10:04.655Z,27.5
2018-06-29T01:12:07.428Z,27.4
2018-06-29T01:14:05.153Z,27.5
2018-06-29T01:16:07.349Z,27.5
2018-06-29T01:18:05.315Z,27.5
2018-06-29T01:20:05.555Z,27.4
2018-06-29T01:22:05.234Z,27.4
2018-06-29T01:24:04.933Z,27.4
2018-06-29T01:26:07.171Z,27.4
2018-06-29T01:28:07.369Z,27.5
2018-06-29T01:30:05.073Z,27.4
2018-06-29T01:32:05.089Z,27.4
2018-06-29T01:34:05.399Z,27.4
2018-06-29T01:36:05.094Z,27.4
2018-06-29T01:38:05.301Z,27.4
2018-06-29T01:40:04.997Z,27.4
2018-06-29T01:42:04.750Z,27.4
2018-06-29T01:44:05.549Z,27.4
2018-06-29T01:46:05.281Z,27.4
2018-06-29T01:48:10.082Z,27.4
2018-06-29T01:50:07.275Z,27.5
2018-06-29T01:52:04.983Z,27.4
2018-06-29T01:54:07.334Z,27.4
2018-06-29T01:56:05.102Z,27.4
2018-06-29T01:58:07.359Z,27.4
2018-06-29T02:00:10.863Z,27.4
2018-06-29T02:02:07.613Z,27.4
2018-06-29T02:04:05.321Z,27.4
2018-06-29T02:06:05.030Z,27.4
2018-06-29T02:08:04.863Z,27.4
2018-06-29T02:10:07.599Z,27.4
2018-06-29T02:12:04.802Z,27.4
2018-06-29T02:14:05.486Z,27.4
2018-06-29T02:16:05.184Z,27.5
2018-06-29T02:18:04.658Z,27.4
2018-06-29T02:20:05.321Z,27.4
2018-06-29T02:22:05.025Z,27.4
2018-06-29T02:24:04.724Z,27.4
2018-06-29T02:26:05.403Z,27.4
2018-06-29T02:28:05.081Z,27.4
2018-06-29T02:30:04.761Z,27.4
2018-06-29T02:32:08.004Z,27.4
2018-06-29T02:34:04.768Z,27.4
2018-06-29T02:36:05.588Z,27.4
2018-06-29T02:38:05.239Z,27.4
2018-06-29T02:40:05.416Z,27.4
2018-06-29T02:42:07.648Z,27.4
2018-06-29T02:44:05.325Z,27.4
2018-06-29T02:46:05.053Z,27.4
2018-06-29T02:48:04.857Z,27.4
2018-06-29T02:50:05.550Z,27.4
2018-06-29T02:52:07.766Z,27.4
2018-06-29T02:54:05.544Z,27.4
2018-06-29T02:56:05.188Z,27.4
2018-06-29T02:58:07.405Z,27.4
2018-06-29T03:00:05.066Z,27.4
2018-06-29T03:02:05.347Z,27.4
2018-06-29T03:04:05.645Z,27.4
2018-06-29T03:06:05.436Z,27.4
2018-06-29T03:08:05.210Z,27.4
2018-06-29T03:10:05.419Z,27.4
2018-06-29T03:12:05.105Z,27.4
2018-06-29T03:14:12.431Z,27.4
2018-06-29T03:16:05.146Z,27.4
2018-06-29T03:18:05.140Z,27.4
2018-06-29T03:20:04.940Z,27.4
2018-06-29T03:22:08.190Z,27.4
2018-06-29T03:24:04.880Z,27.3
2018-06-29T03:26:05.677Z,27.4
2018-06-29T03:28:05.370Z,27.4
2018-06-29T03:30:05.060Z,27.4
2018-06-29T03:32:04.857Z,27.4
2018-06-29T03:34:08.044Z,27.3
2018-06-29T03:36:04.949Z,27.3
2018-06-29T03:38:07.202Z,27.4
2018-06-29T03:40:07.421Z,27.4
2018-06-29T03:42:05.191Z,27.4
2018-06-29T03:44:04.812Z,27.4
2018-06-29T03:46:08.103Z,27.4
2018-06-29T03:48:07.387Z,27.4
2018-06-29T03:50:05.119Z,27.4
2018-06-29T03:52:07.411Z,27.4
2018-06-29T03:54:05.171Z,27.4
2018-06-29T03:56:04.869Z,27.4
2018-06-29T03:58:05.526Z,27.4
2018-06-29T04:00:05.269Z,27.4
2018-06-29T04:02:04.955Z,27.4
2018-06-29T04:04:04.641Z,27.4
2018-06-29T04:06:05.425Z,27.4
2018-06-29T04:08:05.069Z,27.4
2018-06-29T04:10:07.301Z,27.4
2018-06-29T04:12:05.515Z,27.3
2018-06-29T04:14:05.194Z,27.3
2018-06-29T04:16:04.835Z,27.4
2018-06-29T04:18:04.713Z,27.4
2018-06-29T04:20:04.918Z,27.4
2018-06-29T04:22:04.612Z,27.4
2018-06-29T04:24:05.262Z,27.4
2018-06-29T04:26:04.929Z,27.4
2018-06-29T04:28:05.604Z,27.4
2018-06-29T04:30:10.545Z,27.5
2018-06-29T04:32:08.142Z,27.5
2018-06-29T04:34:04.887Z,27.5
2018-06-29T04:36:08.218Z,27.5
2018-06-29T04:38:04.936Z,27.5
2018-06-29T04:40:04.645Z,27.6
2018-06-29T04:42:05.415Z,27.6
2018-06-29T04:44:05.091Z,27.6
2018-06-29T04:46:05.278Z,27.6
2018-06-29T04:48:07.472Z,27.7
2018-06-29T04:50:05.146Z,27.6
2018-06-29T04:52:04.974Z,27.7
2018-06-29T04:54:04.643Z,27.7
2018-06-29T04:56:07.674Z,27.7
2018-06-29T04:58:10.107Z,27.7
2018-06-29T05:00:05.277Z,27.7
2018-06-29T05:02:04.962Z,27.7
2018-06-29T05:04:04.722Z,27.8
2018-06-29T05:06:05.427Z,27.8
2018-06-29T05:08:07.615Z,27.8
2018-06-29T05:10:05.253Z,27.8
2018-06-29T05:12:07.982Z,27.9
2018-06-29T05:14:04.701Z,27.8
2018-06-29T05:16:07.924Z,27.9
2018-06-29T05:18:05.101Z,26.3
2018-06-29T05:20:07.881Z,27.9
2018-06-29T05:22:04.844Z,27.9
2018-06-29T05:24:04.845Z,27.9
2018-06-29T05:26:05.799Z,28
2018-06-29T05:28:08.020Z,28
2018-06-29T05:30:09.811Z,28
2018-06-29T05:32:05.500Z,28
2018-06-29T05:34:05.226Z,28.1
2018-06-29T05:36:07.478Z,28.1
2018-06-29T05:38:05.263Z,28.1
2018-06-29T05:40:04.989Z,28.1
2018-06-29T05:42:04.721Z,28.1
2018-06-29T05:44:05.440Z,28.1
2018-06-29T05:46:08.194Z,28.2
2018-06-29T05:48:05.592Z,28.1
2018-06-29T05:50:10.775Z,28.2
2018-06-29T05:52:04.799Z,28.2
2018-06-29T05:54:05.594Z,28.2
2018-06-29T05:56:05.309Z,28.2
2018-06-29T05:58:05.005Z,28.2
2018-06-29T06:00:04.700Z,28.2
2018-06-29T06:02:07.942Z,28.3
2018-06-29T06:04:10.200Z,28.3
2018-06-29T06:06:04.846Z,28.3
2018-06-29T06:08:05.529Z,28.3
2018-06-29T06:10:05.315Z,28.3
2018-06-29T06:12:05.340Z,28.3
2018-06-29T06:14:05.100Z,28.3
2018-06-29T06:16:07.953Z,28.3
2018-06-29T06:18:07.786Z,28.3
2018-06-29T06:20:05.443Z,28.3
2018-06-29T06:22:05.161Z,28.4
2018-06-29T06:24:05.546Z,28.3
2018-06-29T06:26:05.282Z,28.4
2018-06-29T06:28:04.939Z,28.4
2018-06-29T06:30:04.775Z,28.4
2018-06-29T06:32:05.508Z,28.4
2018-06-29T06:34:05.282Z,28.4
2018-06-29T06:36:05.040Z,28.4
2018-06-29T06:38:07.296Z,28.4
2018-06-29T06:40:04.946Z,28.4
2018-06-29T06:42:04.649Z,28.4
2018-06-29T06:44:05.309Z,28.5
2018-06-29T06:46:04.973Z,28.5
2018-06-29T06:48:04.626Z,28.5
2018-06-29T06:50:04.852Z,28.6
2018-06-29T06:52:05.234Z,28.6
2018-06-29T06:54:04.918Z,28.6
2018-06-29T06:56:05.360Z,28.6
2018-06-29T06:58:05.047Z,28.6
2018-06-29T07:00:04.854Z,28.5
2018-06-29T07:02:05.578Z,28.5
2018-06-29T07:04:05.266Z,28.5
2018-06-29T07:06:04.990Z,28.5
2018-06-29T07:08:04.732Z,28.5
2018-06-29T07:10:05.452Z,28.5
2018-06-29T07:12:09.828Z,28.6
2018-06-29T07:14:05.492Z,28.6
2018-06-29T07:16:05.122Z,28.5
2018-06-29T07:18:05.499Z,28.5
2018-06-29T07:20:04.819Z,28.5
2018-06-29T07:22:05.027Z,28.5
2018-06-29T07:24:07.273Z,28.5
2018-06-29T07:26:05.007Z,28.5
2018-06-29T07:28:04.714Z,28.5
2018-06-29T07:30:05.445Z,28.5
2018-06-29T07:32:04.731Z,28.5
2018-06-29T07:34:05.527Z,28.5
2018-06-29T07:36:07.761Z,28.6
2018-06-29T07:38:05.514Z,28.6
2018-06-29T07:40:05.323Z,28.6
2018-06-29T07:42:05.015Z,28.6
2018-06-29T07:44:07.231Z,28.5
2018-06-29T07:46:04.948Z,28.5
2018-06-29T07:48:04.705Z,28.5
2018-06-29T07:50:07.926Z,28.5
2018-06-29T07:52:07.677Z,28.6
2018-06-29T07:54:05.000Z,28.5
2018-06-29T07:56:05.193Z,28.6
2018-06-29T07:58:04.992Z,28.6
2018-06-29T08:00:05.071Z,28.6
2018-06-29T08:02:05.315Z,28.6
2018-06-29T08:04:04.996Z,28.6
2018-06-29T08:06:04.728Z,28.7
2018-06-29T08:08:05.423Z,28.6
2018-06-29T08:10:05.149Z,28.6
2018-06-29T08:12:07.370Z,28.6
2018-06-29T08:14:05.011Z,28.6
2018-06-29T08:16:04.701Z,28.5
2018-06-29T08:18:05.625Z,28.4
2018-06-29T08:20:05.319Z,28.5
2018-06-29T08:22:05.489Z,28.5
2018-06-29T08:24:12.733Z,28.6
2018-06-29T08:26:05.476Z,28.6
2018-06-29T08:28:07.734Z,28.6
2018-06-29T08:30:05.474Z,28.6
2018-06-29T08:32:05.131Z,28.6
2018-06-29T08:34:09.860Z,28.6
2018-06-29T08:36:05.571Z,28.6
2018-06-29T08:38:05.293Z,28.7
2018-06-29T08:40:04.951Z,28.7
2018-06-29T08:42:04.665Z,28.6
2018-06-29T08:44:05.373Z,28.7
2018-06-29T08:46:05.158Z,28.7
2018-06-29T08:48:04.911Z,28.8
2018-06-29T08:50:08.186Z,28.7
2018-06-29T08:52:05.460Z,28.7
2018-06-29T08:54:05.353Z,28.7
2018-06-29T08:56:07.620Z,28.7
2018-06-29T08:58:05.394Z,28.7
2018-06-29T09:00:05.110Z,28.7
2018-06-29T09:02:04.784Z,28.7
2018-06-29T09:04:05.478Z,28.7
2018-06-29T09:06:05.143Z,28.7
2018-06-29T09:08:04.807Z,28.8
2018-06-29T09:10:05.515Z,28.8
2018-06-29T09:12:07.746Z,28.7
2018-06-29T09:14:05.400Z,28.7
2018-06-29T09:16:05.062Z,28.8
2018-06-29T09:18:05.461Z,28.8
2018-06-29T09:20:04.646Z,28.9
2018-06-29T09:22:07.502Z,28.8
2018-06-29T09:24:04.697Z,28.8
2018-06-29T09:26:05.384Z,28.8
2018-06-29T09:28:05.083Z,28.8
2018-06-29T09:30:07.316Z,28.8
2018-06-29T09:32:07.627Z,28.8
2018-06-29T09:34:04.884Z,28.8
2018-06-29T09:36:05.262Z,28.8
2018-06-29T09:38:05.023Z,28.8
2018-06-29T09:40:04.807Z,28.8
2018-06-29T09:42:07.981Z,28.8
2018-06-29T09:44:04.653Z,28.8
2018-06-29T09:46:05.335Z,28.8
2018-06-29T09:48:05.699Z,28.8
2018-06-29T09:50:04.793Z,28.8
2018-06-29T09:52:13.049Z,28.9
2018-06-29T09:54:07.286Z,28.9
2018-06-29T09:56:12.802Z,28.9
2018-06-29T09:58:05.555Z,28.9
2018-06-29T10:00:05.216Z,28.9
2018-06-29T10:02:04.898Z,28.9
2018-06-29T10:04:05.588Z,28.8
2018-06-29T10:06:10.311Z,28.8
2018-06-29T10:08:05.048Z,28.8
2018-06-29T10:10:14.794Z,28.8
2018-06-29T10:12:05.454Z,28.8
2018-06-29T10:14:05.157Z,28.8
2018-06-29T10:16:05.218Z,28.7
2018-06-29T10:18:04.808Z,28.7
2018-06-29T10:20:05.632Z,28.7
2018-06-29T10:22:08.103Z,28.7
2018-06-29T10:24:04.707Z,28.7
2018-06-29T10:26:05.468Z,28.7
2018-06-29T10:28:05.253Z,28.7
2018-06-29T10:30:05.488Z,28.7
2018-06-29T10:32:05.239Z,28.7
2018-06-29T10:34:04.934Z,28.7
2018-06-29T10:36:07.827Z,28.6
2018-06-29T10:38:04.680Z,28.6
2018-06-29T10:40:05.439Z,28.6
2018-06-29T10:42:05.203Z,28.7
2018-06-29T10:44:04.939Z,28.7
2018-06-29T10:46:05.651Z,28.6
2018-06-29T10:48:05.319Z,28.6
2018-06-29T10:50:05.008Z,28.6
2018-06-29T10:52:04.746Z,28.6
2018-06-29T10:54:05.434Z,28.6
2018-06-29T10:56:05.079Z,28.6
2018-06-29T10:58:07.337Z,28.5
2018-06-29T11:00:07.548Z,28.5
2018-06-29T11:02:05.329Z,28.5
2018-06-29T11:04:05.032Z,28.5
2018-06-29T11:06:05.246Z,28.6
2018-06-29T11:08:04.924Z,28.5
2018-06-29T11:10:10.643Z,28.5
2018-06-29T11:12:07.479Z,28.5
2018-06-29T11:14:05.130Z,28.5
2018-06-29T11:16:04.787Z,28.5
2018-06-29T11:18:04.656Z,28.5
2018-06-29T11:20:04.841Z,28.4
2018-06-29T11:22:10.070Z,28.5
2018-06-29T11:24:05.329Z,28.5
2018-06-29T11:26:05.568Z,28.5
2018-06-29T11:28:05.406Z,28.6
2018-06-29T11:30:05.067Z,28.5
2018-06-29T11:32:04.736Z,28.4
2018-06-29T11:34:05.037Z,28.5
2018-06-29T11:36:07.530Z,28.5
2018-06-29T11:38:05.352Z,28.5
2018-06-29T11:40:10.675Z,28.5
2018-06-29T11:42:05.093Z,28.5
2018-06-29T11:44:04.817Z,28.5
2018-06-29T11:46:05.556Z,28.5
2018-06-29T11:48:07.783Z,28.5
2018-06-29T11:50:05.459Z,28.5
2018-06-29T11:52:04.841Z,28.4
2018-06-29T11:54:05.540Z,28.4
2018-06-29T11:56:07.734Z,28.4
2018-06-29T11:58:05.418Z,28.4
2018-06-29T12:00:05.125Z,28.4
2018-06-29T12:02:04.833Z,28.4
2018-06-29T12:04:10.668Z,28.4
2018-06-29T12:06:05.365Z,28.4
2018-06-29T12:08:05.083Z,28.4
2018-06-29T12:10:07.367Z,28.4
2018-06-29T12:12:05.065Z,28.4
2018-06-29T12:14:05.459Z,28.4
2018-06-29T12:16:05.140Z,28.4
2018-06-29T12:18:07.559Z,28.4
2018-06-29T12:20:07.730Z,28.4
2018-06-29T12:22:05.500Z,28.3
2018-06-29T12:24:04.990Z,28.4
2018-06-29T12:26:04.677Z,28.4
2018-06-29T12:28:05.759Z,28.4
2018-06-29T12:30:07.283Z,28.4
2018-06-29T12:32:08.030Z,28.4
2018-06-29T12:34:04.720Z,28.4
2018-06-29T12:36:05.417Z,28.4
2018-06-29T12:38:05.158Z,28.4
2018-06-29T12:40:05.393Z,28.4
2018-06-29T12:42:05.052Z,28.4
2018-06-29T12:44:04.709Z,28.5
2018-06-29T12:46:05.428Z,28.5
2018-06-29T12:48:04.907Z,28.5
2018-06-29T12:50:05.169Z,28.5
2018-06-29T12:52:04.942Z,28.5
2018-06-29T12:54:04.647Z,28.5
2018-06-29T12:56:05.510Z,28.5
2018-06-29T12:58:12.804Z,28.6
2018-06-29T13:00:08.014Z,28.5
2018-06-29T13:02:04.659Z,28.6
2018-06-29T13:04:05.305Z,28.6
2018-06-29T13:06:10.082Z,28.5
2018-06-29T13:08:04.775Z,28.6
2018-06-29T13:10:08.009Z,28.6
2018-06-29T13:12:04.805Z,28.6
2018-06-29T13:14:10.617Z,28.6
2018-06-29T13:16:10.592Z,28.6
2018-06-29T13:18:05.046Z,28.6
2018-06-29T13:20:04.807Z,28.6
2018-06-29T13:22:05.509Z,28.6
2018-06-29T13:24:05.244Z,28.6
2018-06-29T13:26:04.952Z,28.6
2018-06-29T13:28:07.235Z,28.6
2018-06-29T13:30:10.069Z,28.6
2018-06-29T13:32:04.739Z,28.6
2018-06-29T13:34:07.990Z,28.6
2018-06-29T13:36:04.733Z,28.6
2018-06-29T13:38:07.178Z,28.6
2018-06-29T13:40:04.896Z,28.6
2018-06-29T13:42:13.169Z,28.6
2018-06-29T13:44:07.495Z,28.6
2018-06-29T13:46:08.093Z,28.7
2018-06-29T13:48:04.830Z,28.6
2018-06-29T13:50:05.542Z,28.6
2018-06-29T13:52:05.299Z,28.6
2018-06-29T13:54:05.015Z,28.6
2018-06-29T13:56:04.810Z,28.6
2018-06-29T13:58:10.142Z,28.7
2018-06-29T14:00:07.366Z,28.7
2018-06-29T14:02:05.014Z,28.7
2018-06-29T14:04:07.360Z,28.7
2018-06-29T14:06:07.623Z,28.7
2018-06-29T14:08:07.871Z,28.7
2018-06-29T14:10:05.695Z,28.6
2018-06-29T14:12:05.367Z,28.7
2018-06-29T14:14:05.158Z,28.7
2018-06-29T14:16:04.878Z,28.7
2018-06-29T14:18:04.841Z,28.7
2018-06-29T14:20:04.878Z,28.7
2018-06-29T14:22:05.573Z,28.7
2018-06-29T14:24:04.745Z,28.7
2018-06-29T14:26:05.395Z,28.7
2018-06-29T14:28:05.130Z,28.7
2018-06-29T14:30:04.951Z,28.7
2018-06-29T14:32:04.655Z,28.7
2018-06-29T14:34:05.378Z,28.7
2018-06-29T14:36:05.069Z,28.7
2018-06-29T14:38:07.825Z,28.8
2018-06-29T14:40:05.514Z,28.8
2018-06-29T14:42:07.743Z,28.8
2018-06-29T14:44:05.433Z,28.8
2018-06-29T14:46:05.113Z,28.8
2018-06-29T14:48:04.818Z,28.8
2018-06-29T14:50:05.545Z,28.8
2018-06-29T14:52:05.267Z,28.8
2018-06-29T14:54:05.530Z,28.8
2018-06-29T14:56:04.732Z,28.8
2018-06-29T14:58:07.519Z,28.8
2018-06-29T15:00:05.203Z,28.8
2018-06-29T15:02:05.467Z,28.8
2018-06-29T15:04:05.180Z,28.8
2018-06-29T15:06:05.847Z,28.8
2018-06-29T15:08:10.008Z,28.8
2018-06-29T15:10:04.898Z,28.8
2018-06-29T15:12:05.100Z,28.8
2018-06-29T15:14:07.339Z,28.8
2018-06-29T15:16:07.512Z,28.7
2018-06-29T15:18:05.411Z,28.7
2018-06-29T15:20:05.139Z,28.6
2018-06-29T15:22:05.490Z,28.7
2018-06-29T15:24:05.214Z,28.6
2018-06-29T15:26:04.948Z,28.8
2018-06-29T15:28:09.690Z,28.8
2018-06-29T15:30:07.888Z,28.8
2018-06-29T15:32:05.613Z,28.8
2018-06-29T15:34:05.501Z,28.8
2018-06-29T15:36:05.171Z,28.8
2018-06-29T15:38:04.890Z,28.8
2018-06-29T15:40:05.098Z,28.8
2018-06-29T15:42:04.805Z,28.8
2018-06-29T15:44:10.545Z,28.7
2018-06-29T15:46:07.790Z,28.7
2018-06-29T15:48:08.010Z,28.7
2018-06-29T15:50:05.191Z,28.7
2018-06-29T15:52:04.863Z,28.7
2018-06-29T15:54:05.531Z,28.7
2018-06-29T15:56:04.751Z,28.7
2018-06-29T15:58:05.462Z,28.7
2018-06-29T16:00:07.276Z,28.7
2018-06-29T16:02:05.047Z,28.7
2018-06-29T16:04:04.711Z,28.7
2018-06-29T16:06:15.539Z,28.7
2018-06-29T16:08:05.243Z,28.7
2018-06-29T16:10:07.999Z,28.6
2018-06-29T16:12:04.778Z,28.6
2018-06-29T16:14:05.625Z,28.6
2018-06-29T16:16:05.361Z,28.5
2018-06-29T16:18:05.319Z,28.5
2018-06-29T16:20:05.064Z,28.5
2018-06-29T16:22:04.738Z,28.5
2018-06-29T16:24:05.447Z,28.5
2018-06-29T16:26:05.167Z,28.6
2018-06-29T16:28:04.878Z,28.5
2018-06-29T16:30:08.132Z,28.6
2018-06-29T16:32:07.312Z,28.6
2018-06-29T16:34:08.119Z,28.6
2018-06-29T16:36:04.888Z,28.7
2018-06-29T16:38:05.619Z,28.7
2018-06-29T16:40:05.333Z,28.6
2018-06-29T16:42:10.213Z,28.7
2018-06-29T16:44:08.130Z,28.6
2018-06-29T16:46:05.375Z,28.6
2018-06-29T16:48:04.650Z,28.6
2018-06-29T16:50:07.887Z,28.6
2018-06-29T16:52:05.567Z,28.6
2018-06-29T16:54:04.795Z,28.6
2018-06-29T16:56:05.628Z,28.6
2018-06-29T16:58:05.293Z,28.5
2018-06-29T17:00:05.204Z,28.5
2018-06-29T17:02:04.915Z,28.5
2018-06-29T17:04:05.212Z,28.5
2018-06-29T17:06:05.514Z,28.5
2018-06-29T17:08:10.286Z,28.5
2018-06-29T17:10:04.991Z,28.5
2018-06-29T17:12:12.667Z,28.6
2018-06-29T17:14:05.563Z,28.6
2018-06-29T17:16:05.230Z,28.6
2018-06-29T17:18:07.636Z,28.6
2018-06-29T17:20:05.438Z,28.6
2018-06-29T17:22:07.693Z,28.7
2018-06-29T17:24:05.428Z,28.7
2018-06-29T17:26:05.160Z,28.6
2018-06-29T17:28:04.824Z,28.7
2018-06-29T17:30:05.517Z,28.7
2018-06-29T17:32:04.733Z,28.7
2018-06-29T17:34:05.061Z,28.7
2018-06-29T17:36:07.851Z,28.8
2018-06-29T17:38:10.695Z,28.8
2018-06-29T17:40:15.510Z,28.7
2018-06-29T17:42:04.749Z,28.8
2018-06-29T17:44:05.528Z,28.8
2018-06-29T17:46:05.209Z,28.8
2018-06-29T17:48:07.407Z,28.8
2018-06-29T17:50:05.066Z,28.8
2018-06-29T17:52:04.765Z,28.8
2018-06-29T17:54:04.971Z,28.7
2018-06-29T17:56:05.173Z,28.8
2018-06-29T17:58:04.870Z,28.8
2018-06-29T18:00:05.552Z,28.8
2018-06-29T18:02:08.869Z,28.8
2018-06-29T18:04:07.602Z,28.8
2018-06-29T18:06:05.340Z,28.8
2018-06-29T18:08:05.590Z,28.8
2018-06-29T18:10:07.917Z,28.8
2018-06-29T18:12:05.560Z,28.8
2018-06-29T18:14:07.818Z,28.8
2018-06-29T18:16:08.155Z,28.7
2018-06-29T18:18:05.206Z,28.7
2018-06-29T18:20:04.859Z,28.7
2018-06-29T18:22:05.573Z,28.7
2018-06-29T18:24:05.245Z,28.7
2018-06-29T18:26:04.936Z,28.7
2018-06-29T18:28:05.641Z,28.7
2018-06-29T18:30:05.442Z,28.8
2018-06-29T18:32:05.236Z,28.7
2018-06-29T18:34:05.009Z,28.7
2018-06-29T18:36:07.777Z,28.8
2018-06-29T18:38:05.515Z,28.8
2018-06-29T18:40:04.739Z,28.7
2018-06-29T18:42:05.404Z,28.7
2018-06-29T18:44:05.017Z,28.8
2018-06-29T18:46:04.911Z,28.8
2018-06-29T18:48:05.586Z,28.8
2018-06-29T18:50:05.252Z,28.8
2018-06-29T18:52:05.467Z,28.8
2018-06-29T18:54:05.186Z,28.8
2018-06-29T18:56:07.487Z,28.7
2018-06-29T18:58:07.746Z,28.8
2018-06-29T19:00:05.420Z,28.7
2018-06-29T19:02:12.671Z,28.7
2018-06-29T19:04:05.428Z,28.8
2018-06-29T19:06:07.712Z,28.8
2018-06-29T19:08:05.483Z,28.8
2018-06-29T19:10:05.274Z,28.7
2018-06-29T19:12:04.992Z,28.7
2018-06-29T19:14:07.221Z,28.7
2018-06-29T19:16:07.959Z,28.7
2018-06-29T19:18:04.900Z,28.6
2018-06-29T19:20:05.575Z,28.6
2018-06-29T19:22:05.378Z,28.6
2018-06-29T19:24:05.080Z,28.7
2018-06-29T19:26:04.769Z,28.6
2018-06-29T19:28:07.958Z,28.7
2018-06-29T19:30:07.149Z,28.7
2018-06-29T19:32:04.902Z,28.7
2018-06-29T19:34:11.666Z,28.6
2018-06-29T19:36:10.471Z,28.5
2018-06-29T19:38:05.199Z,28.5
2018-06-29T19:40:04.877Z,28.4
2018-06-29T19:42:05.563Z,28.4
2018-06-29T19:44:07.743Z,28.3
2018-06-29T19:46:05.432Z,28.3
2018-06-29T19:48:07.686Z,28.4
2018-06-29T19:50:05.414Z,28.4
2018-06-29T19:52:05.067Z,28.3
2018-06-29T19:54:04.743Z,28.3
2018-06-29T19:56:05.037Z,28.3
2018-06-29T19:58:04.981Z,28.4
2018-06-29T20:00:05.228Z,28.4
2018-06-29T20:02:04.896Z,28.4
2018-06-29T20:04:07.887Z,28.5
2018-06-29T20:06:05.578Z,28.5
2018-06-29T20:08:07.795Z,28.4
2018-06-29T20:10:05.495Z,28.4
2018-06-29T20:12:05.236Z,28.3
2018-06-29T20:14:04.929Z,28.3
2018-06-29T20:16:05.118Z,28.4
2018-06-29T20:18:05.055Z,28.4
2018-06-29T20:20:07.404Z,28.4
2018-06-29T20:22:05.255Z,28.4
2018-06-29T20:24:05.197Z,28.3
2018-06-29T20:26:10.460Z,28.2
2018-06-29T20:28:05.147Z,28.2
2018-06-29T20:30:05.226Z,28.3
2018-06-29T20:32:04.860Z,28.4
2018-06-29T20:34:05.114Z,28.4
2018-06-29T20:36:04.861Z,28.5
2018-06-29T20:38:07.703Z,28.5
2018-06-29T20:40:05.450Z,28.6
2018-06-29T20:42:05.112Z,28.5
2018-06-29T20:44:04.753Z,28.4
2018-06-29T20:46:05.406Z,28.3
2018-06-29T20:48:04.644Z,28.1
2018-06-29T20:50:05.393Z,28.1
2018-06-29T20:52:05.178Z,28.1
2018-06-29T20:54:07.960Z,28.1
2018-06-29T20:56:04.779Z,28.1
2018-06-29T20:58:05.480Z,28.2
2018-06-29T21:00:05.333Z,28.3
2018-06-29T21:02:07.483Z,28.3
2018-06-29T21:04:04.718Z,28.3
2018-06-29T21:06:10.441Z,28.2
2018-06-29T21:08:07.294Z,28.2
2018-06-29T21:10:08.088Z,28.2
2018-06-29T21:12:05.156Z,28.1
2018-06-29T21:14:04.813Z,28.2
2018-06-29T21:16:08.091Z,28.2
2018-06-29T21:18:05.073Z,28.2
2018-06-29T21:20:04.758Z,28.2
2018-06-29T21:22:08.056Z,28.2
2018-06-29T21:24:04.730Z,28.2
2018-06-29T21:26:08.072Z,28.3
2018-06-29T21:28:04.780Z,28.2
2018-06-29T21:30:07.985Z,28.3
2018-06-29T21:32:07.392Z,28.3
2018-06-29T21:34:05.067Z,28.3
2018-06-29T21:36:09.819Z,28.3
2018-06-29T21:38:08.106Z,28.3
2018-06-29T21:40:04.821Z,28.3
2018-06-29T21:42:08.112Z,28.3
2018-06-29T21:44:12.400Z,28.3
2018-06-29T21:46:05.148Z,28.3
2018-06-29T21:48:07.413Z,28.3
2018-06-29T21:50:05.136Z,28.2
2018-06-29T21:52:04.832Z,28.3
2018-06-29T21:54:05.597Z,28.3
2018-06-29T21:56:05.305Z,28.4
2018-06-29T21:58:10.157Z,28.3
2018-06-29T22:00:09.938Z,28.3
2018-06-29T22:02:04.745Z,28.3
2018-06-29T22:04:05.446Z,28.3
2018-06-29T22:06:05.107Z,28.3
2018-06-29T22:08:07.856Z,28.3
2018-06-29T22:10:05.560Z,28.3
2018-06-29T22:12:05.267Z,28.3
2018-06-29T22:14:10.552Z,28.3
2018-06-29T22:16:05.266Z,28.3
2018-06-29T22:18:05.170Z,28.3
2018-06-29T22:20:07.521Z,28.4
2018-06-29T22:22:05.199Z,28.4
2018-06-29T22:24:07.386Z,28.3
2018-06-29T22:26:05.038Z,28.3
2018-06-29T22:28:09.771Z,28.3
2018-06-29T22:30:05.448Z,28.3
2018-06-29T22:32:05.176Z,28.3
2018-06-29T22:34:07.387Z,28.3
2018-06-29T22:36:05.176Z,28.3
2018-06-29T22:38:04.906Z,28.3
2018-06-29T22:40:04.824Z,28.3
2018-06-29T22:42:05.128Z,28.3
2018-06-29T22:44:04.907Z,28.3
2018-06-29T22:46:07.307Z,28.3
2018-06-29T22:48:05.773Z,28.3
2018-06-29T22:50:05.510Z,28.3
2018-06-29T22:52:05.205Z,28.3
2018-06-29T22:54:04.859Z,28.3
2018-06-29T22:56:05.611Z,28.3
2018-06-29T22:58:05.386Z,28.3
2018-06-29T23:00:05.058Z,28.3
2018-06-29T23:02:04.822Z,28.4
2018-06-29T23:04:05.521Z,28.3
2018-06-29T23:06:05.338Z,28.3
2018-06-29T23:08:05.138Z,28.4
2018-06-29T23:10:04.876Z,28.3
2018-06-29T23:12:05.185Z,28.3
2018-06-29T23:14:04.990Z,28.3
2018-06-29T23:16:04.645Z,28.3
2018-06-29T23:18:05.530Z,28.3
2018-06-29T23:20:05.282Z,28.3
2018-06-29T23:22:04.986Z,28.3
2018-06-29T23:24:04.638Z,28.3
2018-06-29T23:26:05.360Z,28.3
2018-06-29T23:28:05.121Z,28.2
2018-06-29T23:30:04.898Z,28.3
2018-06-29T23:32:04.622Z,28.3
2018-06-29T23:34:05.286Z,28.3
2018-06-29T23:36:07.585Z,28.3
2018-06-29T23:38:07.301Z,28.3
2018-06-29T23:40:07.502Z,28.3
2018-06-29T23:42:07.741Z,28.3
2018-06-29T23:44:05.055Z,28.3
2018-06-29T23:46:05.085Z,28.3
2018-06-29T23:48:04.857Z,28.3
2018-06-29T23:50:07.684Z,28.2
2018-06-29T23:52:05.390Z,28.2
2018-06-29T23:54:05.092Z,28.3
2018-06-29T23:56:04.833Z,28.3
2018-06-29T23:58:13.101Z,28.3
